sensor_id;sensor_type;location;lat;lon;timestamp;temperature;humidity
3348;DHT22;1687;49.540;8.574;2024-01-15T00:01:55;0.40;79.10
3348;DHT22;1687;49.540;8.574;2024-01-15T00:04:21;0.30;78.90
3348;DHT22;1687;49.540;8.574;2024-01-15T00:06:47;0.40;79.20
3348;DHT22;1687;49.540;8.574;2024-01-15T00:09:13;0.40;79.10
3348;DHT22;1687;49.540;8.574;2024-01-15T00:11:38;0.40;79.00
3348;DHT22;1687;49.540;8.574;2024-01-15T00:14:04;0.30;78.60
3348;DHT22;1687;49.540;8.574;2024-01-15T00:16:30;0.30;78.60
3348;DHT22;1687;49.540;8.574;2024-01-15T00:18:55;0.30;78.70
3348;DHT22;1687;49.540;8.574;2024-01-15T00:21:21;0.20;78.40
3348;DHT22;1687;49.540;8.574;2024-01-15T00:23:47;0.20;79.00
3348;DHT22;1687;49.540;8.574;2024-01-15T00:26:13;0.30;79.00
3348;DHT22;1687;49.540;8.574;2024-01-15T00:28:38;0.20;78.30
3348;DHT22;1687;49.540;8.574;2024-01-15T00:31:05;0.20;78.50
3348;DHT22;1687;49.540;8.574;2024-01-15T00:33:31;0.10;78.10
3348;DHT22;1687;49.540;8.574;2024-01-15T00:35:56;0.00;78.10
3348;DHT22;1687;49.540;8.574;2024-01-15T00:38:22;0.00;78.60
3348;DHT22;1687;49.540;8.574;2024-01-15T00:40:48;0.10;79.30
3348;DHT22;1687;49.540;8.574;2024-01-15T00:43:14;0.30;79.60
3348;DHT22;1687;49.540;8.574;2024-01-15T00:45:40;0.30;78.80
3348;DHT22;1687;49.540;8.574;2024-01-15T00:48:06;0.30;78.90
3348;DHT22;1687;49.540;8.574;2024-01-15T00:50:33;0.20;78.70
3348;DHT22;1687;49.540;8.574;2024-01-15T00:52:59;0.20;78.60
3348;DHT22;1687;49.540;8.574;2024-01-15T00:55:24;0.20;79.00
3348;DHT22;1687;49.540;8.574;2024-01-15T00:57:50;0.30;79.30
3348;DHT22;1687;49.540;8.574;2024-01-15T01:00:16;0.20;78.80
3348;DHT22;1687;49.540;8.574;2024-01-15T01:02:42;0.30;79.50
3348;DHT22;1687;49.540;8.574;2024-01-15T01:05:07;0.40;79.70
3348;DHT22;1687;49.540;8.574;2024-01-15T01:07:33;0.40;79.20
3348;DHT22;1687;49.540;8.574;2024-01-15T01:09:59;0.40;79.30
3348;DHT22;1687;49.540;8.574;2024-01-15T01:12:24;0.40;79.60
3348;DHT22;1687;49.540;8.574;2024-01-15T01:14:50;0.50;79.30
3348;DHT22;1687;49.540;8.574;2024-01-15T01:17:16;0.50;79.40
3348;DHT22;1687;49.540;8.574;2024-01-15T01:19:41;0.50;79.70
3348;DHT22;1687;49.540;8.574;2024-01-15T01:22:07;0.50;79.10
3348;DHT22;1687;49.540;8.574;2024-01-15T01:24:33;0.50;79.40
3348;DHT22;1687;49.540;8.574;2024-01-15T01:26:58;0.50;79.80
3348;DHT22;1687;49.540;8.574;2024-01-15T01:29:24;0.60;79.90
3348;DHT22;1687;49.540;8.574;2024-01-15T01:31:51;0.50;78.90
3348;DHT22;1687;49.540;8.574;2024-01-15T01:34:17;0.30;78.70
3348;DHT22;1687;49.540;8.574;2024-01-15T01:36:43;0.30;79.30
3348;DHT22;1687;49.540;8.574;2024-01-15T01:39:09;0.30;79.30
3348;DHT22;1687;49.540;8.574;2024-01-15T01:41:35;0.30;79.60
3348;DHT22;1687;49.540;8.574;2024-01-15T01:44:03;0.30;79.70
3348;DHT22;1687;49.540;8.574;2024-01-15T01:46:29;0.30;79.30
3348;DHT22;1687;49.540;8.574;2024-01-15T01:48:55;0.30;79.60
3348;DHT22;1687;49.540;8.574;2024-01-15T01:51:23;0.30;79.80
3348;DHT22;1687;49.540;8.574;2024-01-15T01:53:50;0.30;79.40
3348;DHT22;1687;49.540;8.574;2024-01-15T01:56:17;0.30;79.90
3348;DHT22;1687;49.540;8.574;2024-01-15T01:58:43;0.30;79.70
3348;DHT22;1687;49.540;8.574;2024-01-15T02:01:11;0.30;79.70
3348;DHT22;1687;49.540;8.574;2024-01-15T02:03:39;0.30;80.10
3348;DHT22;1687;49.540;8.574;2024-01-15T02:06:05;0.30;80.10
3348;DHT22;1687;49.540;8.574;2024-01-15T02:08:31;0.30;79.70
3348;DHT22;1687;49.540;8.574;2024-01-15T02:10:57;0.40;80.50
3348;DHT22;1687;49.540;8.574;2024-01-15T02:13:23;0.40;80.20
3348;DHT22;1687;49.540;8.574;2024-01-15T02:15:49;0.40;79.90
3348;DHT22;1687;49.540;8.574;2024-01-15T02:18:15;0.30;79.60
3348;DHT22;1687;49.540;8.574;2024-01-15T02:20:40;0.30;80.20
3348;DHT22;1687;49.540;8.574;2024-01-15T02:23:14;0.30;79.90
3348;DHT22;1687;49.540;8.574;2024-01-15T02:25:44;0.40;80.60
3348;DHT22;1687;49.540;8.574;2024-01-15T02:28:13;0.40;80.20
3348;DHT22;1687;49.540;8.574;2024-01-15T02:30:43;0.40;80.30
3348;DHT22;1687;49.540;8.574;2024-01-15T02:33:09;0.50;80.30
3348;DHT22;1687;49.540;8.574;2024-01-15T02:35:36;0.50;80.10
3348;DHT22;1687;49.540;8.574;2024-01-15T02:38:05;0.40;80.30
3348;DHT22;1687;49.540;8.574;2024-01-15T02:40:31;0.40;80.10
3348;DHT22;1687;49.540;8.574;2024-01-15T02:42:57;0.40;80.50
3348;DHT22;1687;49.540;8.574;2024-01-15T02:45:23;0.50;80.80
3348;DHT22;1687;49.540;8.574;2024-01-15T02:47:50;0.60;81.20
3348;DHT22;1687;49.540;8.574;2024-01-15T02:50:16;0.70;81.20
3348;DHT22;1687;49.540;8.574;2024-01-15T02:52:42;0.80;81.70
3348;DHT22;1687;49.540;8.574;2024-01-15T02:55:08;0.90;81.00
3348;DHT22;1687;49.540;8.574;2024-01-15T02:57:34;0.90;81.20
3348;DHT22;1687;49.540;8.574;2024-01-15T02:59:59;0.90;80.80
3348;DHT22;1687;49.540;8.574;2024-01-15T03:02:25;0.80;80.40
3348;DHT22;1687;49.540;8.574;2024-01-15T03:04:51;0.80;81.10
3348;DHT22;1687;49.540;8.574;2024-01-15T03:07:17;0.70;80.40
3348;DHT22;1687;49.540;8.574;2024-01-15T03:09:43;0.80;80.90
3348;DHT22;1687;49.540;8.574;2024-01-15T03:12:09;0.90;81.30
3348;DHT22;1687;49.540;8.574;2024-01-15T03:14:36;0.90;80.80
3348;DHT22;1687;49.540;8.574;2024-01-15T03:17:01;0.80;80.00
3348;DHT22;1687;49.540;8.574;2024-01-15T03:19:27;0.70;80.20
3348;DHT22;1687;49.540;8.574;2024-01-15T03:21:53;0.70;80.40
3348;DHT22;1687;49.540;8.574;2024-01-15T03:24:18;0.70;80.70
3348;DHT22;1687;49.540;8.574;2024-01-15T03:26:44;0.70;80.70
3348;DHT22;1687;49.540;8.574;2024-01-15T03:29:10;0.60;80.40
3348;DHT22;1687;49.540;8.574;2024-01-15T03:31:35;0.70;80.70
3348;DHT22;1687;49.540;8.574;2024-01-15T03:34:01;0.70;80.70
3348;DHT22;1687;49.540;8.574;2024-01-15T03:36:27;0.70;80.70
3348;DHT22;1687;49.540;8.574;2024-01-15T03:38:52;0.70;80.70
3348;DHT22;1687;49.540;8.574;2024-01-15T03:41:18;0.80;81.00
3348;DHT22;1687;49.540;8.574;2024-01-15T03:43:44;0.70;80.30
3348;DHT22;1687;49.540;8.574;2024-01-15T03:46:09;0.70;81.40
3348;DHT22;1687;49.540;8.574;2024-01-15T03:48:35;0.70;80.60
3348;DHT22;1687;49.540;8.574;2024-01-15T03:51:01;0.70;80.60
3348;DHT22;1687;49.540;8.574;2024-01-15T03:53:26;0.70;80.60
3348;DHT22;1687;49.540;8.574;2024-01-15T03:55:52;0.70;80.60
3348;DHT22;1687;49.540;8.574;2024-01-15T03:58:18;0.80;81.00
3348;DHT22;1687;49.540;8.574;2024-01-15T04:00:43;0.70;80.40
3348;DHT22;1687;49.540;8.574;2024-01-15T04:03:09;0.70;80.40
3348;DHT22;1687;49.540;8.574;2024-01-15T04:05:35;0.70;80.50
3348;DHT22;1687;49.540;8.574;2024-01-15T04:08:01;0.70;80.80
3348;DHT22;1687;49.540;8.574;2024-01-15T04:10:27;0.70;80.70
3348;DHT22;1687;49.540;8.574;2024-01-15T04:12:52;0.70;80.40
3348;DHT22;1687;49.540;8.574;2024-01-15T04:15:18;0.70;80.40
3348;DHT22;1687;49.540;8.574;2024-01-15T04:17:44;0.70;80.70
3348;DHT22;1687;49.540;8.574;2024-01-15T04:20:10;0.70;80.70
3348;DHT22;1687;49.540;8.574;2024-01-15T04:22:36;0.70;81.00
3348;DHT22;1687;49.540;8.574;2024-01-15T04:25:02;0.60;80.50
3348;DHT22;1687;49.540;8.574;2024-01-15T04:27:28;0.60;80.70
3348;DHT22;1687;49.540;8.574;2024-01-15T04:29:54;0.60;80.20
3348;DHT22;1687;49.540;8.574;2024-01-15T04:32:20;0.50;80.40
3348;DHT22;1687;49.540;8.574;2024-01-15T04:34:46;0.60;80.50
3348;DHT22;1687;49.540;8.574;2024-01-15T04:37:13;0.50;80.10
3348;DHT22;1687;49.540;8.574;2024-01-15T04:39:39;0.50;80.60
3348;DHT22;1687;49.540;8.574;2024-01-15T04:42:05;0.50;80.80
3348;DHT22;1687;49.540;8.574;2024-01-15T04:44:32;0.60;80.90
3348;DHT22;1687;49.540;8.574;2024-01-15T04:46:57;0.50;80.60
3348;DHT22;1687;49.540;8.574;2024-01-15T04:49:23;0.60;81.00
3348;DHT22;1687;49.540;8.574;2024-01-15T04:51:51;0.60;81.00
3348;DHT22;1687;49.540;8.574;2024-01-15T04:54:17;0.60;80.60
3348;DHT22;1687;49.540;8.574;2024-01-15T04:56:43;0.50;80.30
3348;DHT22;1687;49.540;8.574;2024-01-15T04:59:10;0.50;80.90
3348;DHT22;1687;49.540;8.574;2024-01-15T05:01:36;0.50;80.90
3348;DHT22;1687;49.540;8.574;2024-01-15T05:04:01;0.50;80.90
3348;DHT22;1687;49.540;8.574;2024-01-15T05:06:27;0.50;81.00
3348;DHT22;1687;49.540;8.574;2024-01-15T05:08:53;0.50;81.10
3348;DHT22;1687;49.540;8.574;2024-01-15T05:11:19;0.60;81.40
3348;DHT22;1687;49.540;8.574;2024-01-15T05:13:44;0.60;81.30
3348;DHT22;1687;49.540;8.574;2024-01-15T05:16:10;0.60;81.20
3348;DHT22;1687;49.540;8.574;2024-01-15T05:18:36;0.60;81.10
3348;DHT22;1687;49.540;8.574;2024-01-15T05:21:03;0.60;81.30
3348;DHT22;1687;49.540;8.574;2024-01-15T05:23:30;0.70;81.70
3348;DHT22;1687;49.540;8.574;2024-01-15T05:25:56;0.70;81.70
3348;DHT22;1687;49.540;8.574;2024-01-15T05:28:22;0.70;81.50
3348;DHT22;1687;49.540;8.574;2024-01-15T05:30:48;0.80;81.70
3348;DHT22;1687;49.540;8.574;2024-01-15T05:33:16;0.80;81.70
3348;DHT22;1687;49.540;8.574;2024-01-15T05:35:42;0.80;81.90
3348;DHT22;1687;49.540;8.574;2024-01-15T05:38:08;0.90;82.30
3348;DHT22;1687;49.540;8.574;2024-01-15T05:40:34;0.90;81.60
3348;DHT22;1687;49.540;8.574;2024-01-15T05:42:59;0.90;81.80
3348;DHT22;1687;49.540;8.574;2024-01-15T05:45:30;0.90;82.00
3348;DHT22;1687;49.540;8.574;2024-01-15T05:47:55;0.90;82.10
3348;DHT22;1687;49.540;8.574;2024-01-15T05:50:21;1.00;82.30
3348;DHT22;1687;49.540;8.574;2024-01-15T05:52:47;1.00;81.90
3348;DHT22;1687;49.540;8.574;2024-01-15T05:55:13;1.00;81.70
3348;DHT22;1687;49.540;8.574;2024-01-15T05:57:39;0.90;81.70
3348;DHT22;1687;49.540;8.574;2024-01-15T06:00:06;0.90;81.50
3348;DHT22;1687;49.540;8.574;2024-01-15T06:02:34;0.80;81.30
3348;DHT22;1687;49.540;8.574;2024-01-15T06:04:59;0.80;81.90
3348;DHT22;1687;49.540;8.574;2024-01-15T06:07:27;0.90;82.40
3348;DHT22;1687;49.540;8.574;2024-01-15T06:09:52;1.00;82.20
3348;DHT22;1687;49.540;8.574;2024-01-15T06:12:19;1.00;82.70
3348;DHT22;1687;49.540;8.574;2024-01-15T06:14:46;1.10;82.70
3348;DHT22;1687;49.540;8.574;2024-01-15T06:17:12;1.10;82.20
3348;DHT22;1687;49.540;8.574;2024-01-15T06:19:37;1.10;82.10
3348;DHT22;1687;49.540;8.574;2024-01-15T06:22:03;1.00;81.60
3348;DHT22;1687;49.540;8.574;2024-01-15T06:24:29;1.00;82.10
3348;DHT22;1687;49.540;8.574;2024-01-15T06:26:55;1.10;82.50
3348;DHT22;1687;49.540;8.574;2024-01-15T06:29:21;1.10;82.20
3348;DHT22;1687;49.540;8.574;2024-01-15T06:31:46;1.10;82.60
3348;DHT22;1687;49.540;8.574;2024-01-15T06:34:12;1.20;82.80
3348;DHT22;1687;49.540;8.574;2024-01-15T06:36:38;1.20;82.30
3348;DHT22;1687;49.540;8.574;2024-01-15T06:39:03;1.20;82.50
3348;DHT22;1687;49.540;8.574;2024-01-15T06:41:29;1.20;82.40
3348;DHT22;1687;49.540;8.574;2024-01-15T06:43:55;1.20;82.30
3348;DHT22;1687;49.540;8.574;2024-01-15T06:46:21;1.20;82.40
3348;DHT22;1687;49.540;8.574;2024-01-15T06:48:47;1.20;82.30
3348;DHT22;1687;49.540;8.574;2024-01-15T06:51:13;1.20;82.40
3348;DHT22;1687;49.540;8.574;2024-01-15T06:53:39;1.30;82.50
3348;DHT22;1687;49.540;8.574;2024-01-15T06:56:05;1.20;82.20
3348;DHT22;1687;49.540;8.574;2024-01-15T06:58:31;1.20;82.80
3348;DHT22;1687;49.540;8.574;2024-01-15T07:00:57;1.20;82.50
3348;DHT22;1687;49.540;8.574;2024-01-15T07:03:23;1.30;83.50
3348;DHT22;1687;49.540;8.574;2024-01-15T07:05:49;1.30;82.80
3348;DHT22;1687;49.540;8.574;2024-01-15T07:08:14;1.40;82.80
3348;DHT22;1687;49.540;8.574;2024-01-15T07:10:40;1.40;83.20
3348;DHT22;1687;49.540;8.574;2024-01-15T07:13:06;1.40;82.60
3348;DHT22;1687;49.540;8.574;2024-01-15T07:15:31;1.40;82.80
3348;DHT22;1687;49.540;8.574;2024-01-15T07:17:57;1.50;83.50
3348;DHT22;1687;49.540;8.574;2024-01-15T07:20:23;1.60;83.50
3348;DHT22;1687;49.540;8.574;2024-01-15T07:22:48;1.70;83.80
3348;DHT22;1687;49.540;8.574;2024-01-15T07:25:15;1.80;83.40
3348;DHT22;1687;49.540;8.574;2024-01-15T07:27:41;1.70;82.70
3348;DHT22;1687;49.540;8.574;2024-01-15T07:30:10;1.60;82.00
3348;DHT22;1687;49.540;8.574;2024-01-15T07:32:37;1.50;82.20
3348;DHT22;1687;49.540;8.574;2024-01-15T07:35:03;1.30;82.00
3348;DHT22;1687;49.540;8.574;2024-01-15T07:37:29;1.30;82.40
3348;DHT22;1687;49.540;8.574;2024-01-15T07:39:55;1.30;82.30
3348;DHT22;1687;49.540;8.574;2024-01-15T07:42:20;1.30;82.60
3348;DHT22;1687;49.540;8.574;2024-01-15T07:44:46;1.20;82.60
3348;DHT22;1687;49.540;8.574;2024-01-15T07:47:12;1.20;82.90
3348;DHT22;1687;49.540;8.574;2024-01-15T07:49:38;1.40;83.60
3348;DHT22;1687;49.540;8.574;2024-01-15T07:52:04;1.40;83.30
3348;DHT22;1687;49.540;8.574;2024-01-15T07:54:31;1.50;83.70
3348;DHT22;1687;49.540;8.574;2024-01-15T07:56:58;1.60;83.70
3348;DHT22;1687;49.540;8.574;2024-01-15T07:59:26;1.60;83.00
3348;DHT22;1687;49.540;8.574;2024-01-15T08:01:52;1.60;83.30
3348;DHT22;1687;49.540;8.574;2024-01-15T08:04:18;1.50;82.90
3348;DHT22;1687;49.540;8.574;2024-01-15T08:06:44;1.60;83.70
3348;DHT22;1687;49.540;8.574;2024-01-15T08:09:10;1.60;83.10
3348;DHT22;1687;49.540;8.574;2024-01-15T08:11:39;1.50;83.30
3348;DHT22;1687;49.540;8.574;2024-01-15T08:14:06;1.70;83.80
3348;DHT22;1687;49.540;8.574;2024-01-15T08:16:32;1.60;83.30
3348;DHT22;1687;49.540;8.574;2024-01-15T08:18:58;1.60;83.70
3348;DHT22;1687;49.540;8.574;2024-01-15T08:21:24;1.60;83.20
3348;DHT22;1687;49.540;8.574;2024-01-15T08:23:50;1.60;83.60
3348;DHT22;1687;49.540;8.574;2024-01-15T08:26:15;1.80;83.70
3348;DHT22;1687;49.540;8.574;2024-01-15T08:28:41;1.60;83.30
3348;DHT22;1687;49.540;8.574;2024-01-15T08:31:07;1.70;83.80
3348;DHT22;1687;49.540;8.574;2024-01-15T08:33:32;1.60;82.80
3348;DHT22;1687;49.540;8.574;2024-01-15T08:35:58;1.60;83.30
3348;DHT22;1687;49.540;8.574;2024-01-15T08:38:23;1.60;83.10
3348;DHT22;1687;49.540;8.574;2024-01-15T08:40:50;1.50;83.40
3348;DHT22;1687;49.540;8.574;2024-01-15T08:43:18;1.60;83.80
3348;DHT22;1687;49.540;8.574;2024-01-15T08:45:44;1.70;83.80
3348;DHT22;1687;49.540;8.574;2024-01-15T08:48:10;1.70;84.70
3348;DHT22;1687;49.540;8.574;2024-01-15T08:50:39;1.70;83.80
3348;DHT22;1687;49.540;8.574;2024-01-15T08:53:04;1.80;84.30
3348;DHT22;1687;49.540;8.574;2024-01-15T08:55:30;1.80;84.00
3348;DHT22;1687;49.540;8.574;2024-01-15T08:57:56;1.80;84.00
3348;DHT22;1687;49.540;8.574;2024-01-15T09:00:22;1.90;84.60
3348;DHT22;1687;49.540;8.574;2024-01-15T09:02:47;2.00;84.50
3348;DHT22;1687;49.540;8.574;2024-01-15T09:05:13;1.90;82.90
3348;DHT22;1687;49.540;8.574;2024-01-15T09:07:39;1.80;83.50
3348;DHT22;1687;49.540;8.574;2024-01-15T09:10:05;1.80;84.10
3348;DHT22;1687;49.540;8.574;2024-01-15T09:12:31;1.90;85.10
3348;DHT22;1687;49.540;8.574;2024-01-15T09:14:57;1.80;83.60
3348;DHT22;1687;49.540;8.574;2024-01-15T09:17:23;1.80;83.70
3348;DHT22;1687;49.540;8.574;2024-01-15T09:19:49;1.80;84.20
3348;DHT22;1687;49.540;8.574;2024-01-15T09:22:15;1.80;84.00
3348;DHT22;1687;49.540;8.574;2024-01-15T09:24:44;1.90;84.40
3348;DHT22;1687;49.540;8.574;2024-01-15T09:27:10;1.90;84.40
3348;DHT22;1687;49.540;8.574;2024-01-15T09:29:36;1.90;84.30
3348;DHT22;1687;49.540;8.574;2024-01-15T09:32:06;1.90;84.40
3348;DHT22;1687;49.540;8.574;2024-01-15T09:34:33;2.00;84.90
3348;DHT22;1687;49.540;8.574;2024-01-15T09:36:59;1.90;84.30
3348;DHT22;1687;49.540;8.574;2024-01-15T09:39:28;1.90;85.60
3348;DHT22;1687;49.540;8.574;2024-01-15T09:41:54;2.00;85.40
3348;DHT22;1687;49.540;8.574;2024-01-15T09:44:21;2.00;84.80
3348;DHT22;1687;49.540;8.574;2024-01-15T09:46:47;2.20;85.90
3348;DHT22;1687;49.540;8.574;2024-01-15T09:49:16;2.30;86.10
3348;DHT22;1687;49.540;8.574;2024-01-15T09:51:42;2.40;86.20
3348;DHT22;1687;49.540;8.574;2024-01-15T09:54:08;2.50;86.00
3348;DHT22;1687;49.540;8.574;2024-01-15T09:56:35;2.50;85.60
3348;DHT22;1687;49.540;8.574;2024-01-15T09:59:01;2.50;86.20
3348;DHT22;1687;49.540;8.574;2024-01-15T10:01:31;2.70;87.00
3348;DHT22;1687;49.540;8.574;2024-01-15T10:03:56;2.70;86.60
3348;DHT22;1687;49.540;8.574;2024-01-15T10:06:22;2.80;86.70
3348;DHT22;1687;49.540;8.574;2024-01-15T10:08:50;2.90;86.70
3348;DHT22;1687;49.540;8.574;2024-01-15T10:11:16;3.00;87.00
3348;DHT22;1687;49.540;8.574;2024-01-15T10:13:45;3.00;86.20
3348;DHT22;1687;49.540;8.574;2024-01-15T10:16:11;2.90;85.80
3348;DHT22;1687;49.540;8.574;2024-01-15T10:18:37;3.00;86.80
3348;DHT22;1687;49.540;8.574;2024-01-15T10:21:06;2.90;86.20
3348;DHT22;1687;49.540;8.574;2024-01-15T10:23:32;2.90;86.20
3348;DHT22;1687;49.540;8.574;2024-01-15T10:25:58;2.90;86.30
3348;DHT22;1687;49.540;8.574;2024-01-15T10:28:26;2.90;85.90
3348;DHT22;1687;49.540;8.574;2024-01-15T10:30:55;2.80;85.70
3348;DHT22;1687;49.540;8.574;2024-01-15T10:33:22;2.70;85.60
3348;DHT22;1687;49.540;8.574;2024-01-15T10:35:53;2.60;85.80
3348;DHT22;1687;49.540;8.574;2024-01-15T10:38:21;2.70;86.60
3348;DHT22;1687;49.540;8.574;2024-01-15T10:40:50;2.70;86.30
3348;DHT22;1687;49.540;8.574;2024-01-15T10:43:17;2.70;86.60
3348;DHT22;1687;49.540;8.574;2024-01-15T10:45:45;2.70;86.10
3348;DHT22;1687;49.540;8.574;2024-01-15T10:48:11;2.60;86.20
3348;DHT22;1687;49.540;8.574;2024-01-15T10:50:37;2.70;86.30
3348;DHT22;1687;49.540;8.574;2024-01-15T10:53:04;2.60;86.50
3348;DHT22;1687;49.540;8.574;2024-01-15T10:55:31;2.60;86.60
3348;DHT22;1687;49.540;8.574;2024-01-15T10:57:58;2.60;87.00
3348;DHT22;1687;49.540;8.574;2024-01-15T11:00:24;2.70;87.10
3348;DHT22;1687;49.540;8.574;2024-01-15T11:02:51;2.70;87.20
3348;DHT22;1687;49.540;8.574;2024-01-15T11:05:18;2.80;87.10
3348;DHT22;1687;49.540;8.574;2024-01-15T11:07:50;2.80;87.40
3348;DHT22;1687;49.540;8.574;2024-01-15T11:10:40;2.80;87.60
3348;DHT22;1687;49.540;8.574;2024-01-15T11:16:02;2.90;88.10
3348;DHT22;1687;49.540;8.574;2024-01-15T11:18:31;3.00;87.90
3348;DHT22;1687;49.540;8.574;2024-01-15T11:23:45;2.90;87.70
3348;DHT22;1687;49.540;8.574;2024-01-15T11:29:05;2.70;87.20
3348;DHT22;1687;49.540;8.574;2024-01-15T11:34:05;2.70;87.90
3348;DHT22;1687;49.540;8.574;2024-01-15T11:41:56;2.80;88.10
3348;DHT22;1687;49.540;8.574;2024-01-15T11:44:22;2.70;88.40
3348;DHT22;1687;49.540;8.574;2024-01-15T11:46:57;2.70;88.40
3348;DHT22;1687;49.540;8.574;2024-01-15T11:52:20;3.00;90.10
3348;DHT22;1687;49.540;8.574;2024-01-15T11:55:10;3.00;88.50
3348;DHT22;1687;49.540;8.574;2024-01-15T11:57:50;2.90;88.30
3348;DHT22;1687;49.540;8.574;2024-01-15T12:00:20;2.90;89.10
3348;DHT22;1687;49.540;8.574;2024-01-15T12:02:47;2.90;88.60
3348;DHT22;1687;49.540;8.574;2024-01-15T12:05:15;2.80;88.40
3348;DHT22;1687;49.540;8.574;2024-01-15T12:07:42;2.80;89.10
3348;DHT22;1687;49.540;8.574;2024-01-15T12:10:16;2.80;88.90
3348;DHT22;1687;49.540;8.574;2024-01-15T12:13:00;2.90;89.20
3348;DHT22;1687;49.540;8.574;2024-01-15T12:15:31;2.90;89.40
3348;DHT22;1687;49.540;8.574;2024-01-15T12:18:02;3.00;89.50
3348;DHT22;1687;49.540;8.574;2024-01-15T12:20:29;3.00;88.70
3348;DHT22;1687;49.540;8.574;2024-01-15T12:22:55;3.00;89.40
3348;DHT22;1687;49.540;8.574;2024-01-15T12:25:25;3.10;89.60
3348;DHT22;1687;49.540;8.574;2024-01-15T12:27:53;3.10;89.50
3348;DHT22;1687;49.540;8.574;2024-01-15T12:30:19;3.20;89.60
3348;DHT22;1687;49.540;8.574;2024-01-15T12:32:45;3.20;89.60
3348;DHT22;1687;49.540;8.574;2024-01-15T12:35:13;3.30;89.20
3348;DHT22;1687;49.540;8.574;2024-01-15T12:37:40;3.30;89.90
3348;DHT22;1687;49.540;8.574;2024-01-15T12:40:07;3.50;89.60
3348;DHT22;1687;49.540;8.574;2024-01-15T12:42:35;3.50;89.00
3348;DHT22;1687;49.540;8.574;2024-01-15T12:45:02;3.50;89.20
3348;DHT22;1687;49.540;8.574;2024-01-15T12:47:30;3.60;89.20
3348;DHT22;1687;49.540;8.574;2024-01-15T12:49:57;3.60;88.60
3348;DHT22;1687;49.540;8.574;2024-01-15T12:52:26;3.70;89.10
3348;DHT22;1687;49.540;8.574;2024-01-15T12:54:53;3.70;88.40
3348;DHT22;1687;49.540;8.574;2024-01-15T12:57:18;3.70;88.30
3348;DHT22;1687;49.540;8.574;2024-01-15T12:59:45;3.80;89.00
3348;DHT22;1687;49.540;8.574;2024-01-15T13:02:12;3.80;88.10
3348;DHT22;1687;49.540;8.574;2024-01-15T13:04:38;3.80;87.50
3348;DHT22;1687;49.540;8.574;2024-01-15T13:07:05;3.70;87.40
3348;DHT22;1687;49.540;8.574;2024-01-15T13:09:32;3.70;87.00
3348;DHT22;1687;49.540;8.574;2024-01-15T13:12:02;3.70;87.40
3348;DHT22;1687;49.540;8.574;2024-01-15T13:14:28;3.60;86.60
3348;DHT22;1687;49.540;8.574;2024-01-15T13:16:54;3.50;86.20
3348;DHT22;1687;49.540;8.574;2024-01-15T13:19:20;3.50;87.00
3348;DHT22;1687;49.540;8.574;2024-01-15T13:21:48;3.50;86.60
3348;DHT22;1687;49.540;8.574;2024-01-15T13:24:15;3.50;86.70
3348;DHT22;1687;49.540;8.574;2024-01-15T13:26:41;3.60;87.90
3348;DHT22;1687;49.540;8.574;2024-01-15T13:29:07;3.80;87.50
3348;DHT22;1687;49.540;8.574;2024-01-15T13:31:33;3.80;86.80
3348;DHT22;1687;49.540;8.574;2024-01-15T13:33:59;3.80;86.50
3348;DHT22;1687;49.540;8.574;2024-01-15T13:36:25;3.80;86.50
3348;DHT22;1687;49.540;8.574;2024-01-15T13:38:52;3.80;86.30
3348;DHT22;1687;49.540;8.574;2024-01-15T13:41:19;3.80;86.20
3348;DHT22;1687;49.540;8.574;2024-01-15T13:43:48;3.90;86.70
3348;DHT22;1687;49.540;8.574;2024-01-15T13:46:15;3.80;85.70
3348;DHT22;1687;49.540;8.574;2024-01-15T13:48:40;3.70;85.40
3348;DHT22;1687;49.540;8.574;2024-01-15T13:51:06;3.70;85.40
3348;DHT22;1687;49.540;8.574;2024-01-15T13:53:32;3.70;85.70
3348;DHT22;1687;49.540;8.574;2024-01-15T13:55:57;3.80;85.80
3348;DHT22;1687;49.540;8.574;2024-01-15T13:58:24;3.80;85.90
3348;DHT22;1687;49.540;8.574;2024-01-15T14:00:51;3.80;85.50
3348;DHT22;1687;49.540;8.574;2024-01-15T14:03:17;3.70;84.90
3348;DHT22;1687;49.540;8.574;2024-01-15T14:05:44;3.70;85.00
3348;DHT22;1687;49.540;8.574;2024-01-15T14:08:10;3.70;85.30
3348;DHT22;1687;49.540;8.574;2024-01-15T14:10:35;3.80;85.40
3348;DHT22;1687;49.540;8.574;2024-01-15T14:13:02;3.80;84.90
3348;DHT22;1687;49.540;8.574;2024-01-15T14:15:28;3.80;84.70
3348;DHT22;1687;49.540;8.574;2024-01-15T14:17:54;3.80;84.80
3348;DHT22;1687;49.540;8.574;2024-01-15T14:20:20;3.80;84.50
3348;DHT22;1687;49.540;8.574;2024-01-15T14:22:45;3.80;84.40
3348;DHT22;1687;49.540;8.574;2024-01-15T14:25:11;3.80;84.50
3348;DHT22;1687;49.540;8.574;2024-01-15T14:27:37;3.90;84.70
3348;DHT22;1687;49.540;8.574;2024-01-15T14:30:03;4.10;84.70
3348;DHT22;1687;49.540;8.574;2024-01-15T14:32:31;4.00;84.10
3348;DHT22;1687;49.540;8.574;2024-01-15T14:34:56;4.10;84.30
3348;DHT22;1687;49.540;8.574;2024-01-15T14:37:22;4.10;84.10
3348;DHT22;1687;49.540;8.574;2024-01-15T14:39:48;4.00;83.50
3348;DHT22;1687;49.540;8.574;2024-01-15T14:42:13;3.90;83.30
3348;DHT22;1687;49.540;8.574;2024-01-15T14:44:39;3.90;83.30
3348;DHT22;1687;49.540;8.574;2024-01-15T14:47:06;3.80;83.00
3348;DHT22;1687;49.540;8.574;2024-01-15T14:49:33;3.70;82.70
3348;DHT22;1687;49.540;8.574;2024-01-15T14:51:59;3.70;82.70
3348;DHT22;1687;49.540;8.574;2024-01-15T14:54:25;3.70;83.00
3348;DHT22;1687;49.540;8.574;2024-01-15T14:56:51;3.60;82.60
3348;DHT22;1687;49.540;8.574;2024-01-15T14:59:17;3.70;83.20
3348;DHT22;1687;49.540;8.574;2024-01-15T15:01:42;3.70;82.70
3348;DHT22;1687;49.540;8.574;2024-01-15T15:04:08;3.70;82.40
3348;DHT22;1687;49.540;8.574;2024-01-15T15:06:36;3.70;82.60
3348;DHT22;1687;49.540;8.574;2024-01-15T15:09:02;3.60;82.30
3348;DHT22;1687;49.540;8.574;2024-01-15T15:11:34;3.60;82.30
3348;DHT22;1687;49.540;8.574;2024-01-15T15:14:00;3.60;82.50
3348;DHT22;1687;49.540;8.574;2024-01-15T15:16:26;3.60;82.50
3348;DHT22;1687;49.540;8.574;2024-01-15T15:18:53;3.60;82.20
3348;DHT22;1687;49.540;8.574;2024-01-15T15:21:20;3.70;82.40
3348;DHT22;1687;49.540;8.574;2024-01-15T15:23:45;3.70;82.30
3348;DHT22;1687;49.540;8.574;2024-01-15T15:26:12;3.70;82.40
3348;DHT22;1687;49.540;8.574;2024-01-15T15:28:38;3.80;82.40
3348;DHT22;1687;49.540;8.574;2024-01-15T15:31:07;3.80;82.20
3348;DHT22;1687;49.540;8.574;2024-01-15T15:33:34;3.80;81.90
3348;DHT22;1687;49.540;8.574;2024-01-15T15:36:00;3.80;81.90
3348;DHT22;1687;49.540;8.574;2024-01-15T15:38:30;3.70;81.50
3348;DHT22;1687;49.540;8.574;2024-01-15T15:40:57;3.70;81.60
3348;DHT22;1687;49.540;8.574;2024-01-15T15:43:23;3.60;81.40
3348;DHT22;1687;49.540;8.574;2024-01-15T15:45:48;3.60;81.10
3348;DHT22;1687;49.540;8.574;2024-01-15T15:48:14;3.50;80.90
3348;DHT22;1687;49.540;8.574;2024-01-15T15:50:40;3.40;80.90
3348;DHT22;1687;49.540;8.574;2024-01-15T15:53:06;3.40;80.70
3348;DHT22;1687;49.540;8.574;2024-01-15T15:55:31;3.30;80.60
3348;DHT22;1687;49.540;8.574;2024-01-15T15:57:57;3.20;80.30
3348;DHT22;1687;49.540;8.574;2024-01-15T16:00:23;3.20;80.30
3348;DHT22;1687;49.540;8.574;2024-01-15T16:02:48;3.20;80.30
3348;DHT22;1687;49.540;8.574;2024-01-15T16:05:14;3.20;80.30
3348;DHT22;1687;49.540;8.574;2024-01-15T16:07:40;3.10;80.00
3348;DHT22;1687;49.540;8.574;2024-01-15T16:10:06;3.00;80.10
3348;DHT22;1687;49.540;8.574;2024-01-15T16:12:32;3.00;80.00
3348;DHT22;1687;49.540;8.574;2024-01-15T16:15:00;3.00;80.10
3348;DHT22;1687;49.540;8.574;2024-01-15T16:17:26;3.10;80.10
3348;DHT22;1687;49.540;8.574;2024-01-15T16:19:53;3.10;79.90
3348;DHT22;1687;49.540;8.574;2024-01-15T16:22:19;3.10;79.80
3348;DHT22;1687;49.540;8.574;2024-01-15T16:24:45;3.10;79.80
3348;DHT22;1687;49.540;8.574;2024-01-15T16:27:10;3.10;79.70
3348;DHT22;1687;49.540;8.574;2024-01-15T16:29:37;3.00;79.60
3348;DHT22;1687;49.540;8.574;2024-01-15T16:32:03;3.00;79.60